sensor_id;sensor_type;location;lat;lon;timestamp;temperature;humidity
33699;DHT22;20032;52.436;13.312;2022-09-24T00:02:11;11.60;99.90
33699;DHT22;20032;52.436;13.312;2022-09-24T00:04:36;11.60;99.90
33699;DHT22;20032;52.436;13.312;2022-09-24T00:07:02;11.60;99.90
33699;DHT22;20032;52.436;13.312;2022-09-24T00:09:28;11.60;99.90
33699;DHT22;20032;52.436;13.312;2022-09-24T00:11:54;11.60;99.90
33699;DHT22;20032;52.436;13.312;2022-09-24T00:14:20;11.60;99.90
33699;DHT22;20032;52.436;13.312;2022-09-24T00:16:45;11.60;99.90
33699;DHT22;20032;52.436;13.312;2022-09-24T00:19:12;11.60;99.90
33699;DHT22;20032;52.436;13.312;2022-09-24T00:21:39;11.50;99.90
33699;DHT22;20032;52.436;13.312;2022-09-24T00:24:08;11.50;99.90
33699;DHT22;20032;52.436;13.312;2022-09-24T00:26:34;11.50;99.90
33699;DHT22;20032;52.436;13.312;2022-09-24T00:29:19;11.50;99.90
33699;DHT22;20032;52.436;13.312;2022-09-24T00:31:45;11.50;99.90
33699;DHT22;20032;52.436;13.312;2022-09-24T00:34:11;11.40;99.90
33699;DHT22;20032;52.436;13.312;2022-09-24T00:36:36;11.40;99.90
33699;DHT22;20032;52.436;13.312;2022-09-24T00:39:02;11.40;99.90
33699;DHT22;20032;52.436;13.312;2022-09-24T00:41:30;11.40;99.90
33699;DHT22;20032;52.436;13.312;2022-09-24T00:43:56;11.30;99.90
33699;DHT22;20032;52.436;13.312;2022-09-24T00:46:37;11.20;99.90
33699;DHT22;20032;52.436;13.312;2022-09-24T00:49:05;11.10;99.90
33699;DHT22;20032;52.436;13.312;2022-09-24T00:51:34;11.10;99.90
33699;DHT22;20032;52.436;13.312;2022-09-24T00:54:03;11.10;99.90
33699;DHT22;20032;52.436;13.312;2022-09-24T00:56:31;11.00;99.90
33699;DHT22;20032;52.436;13.312;2022-09-24T00:58:59;11.00;99.90
33699;DHT22;20032;52.436;13.312;2022-09-24T01:01:27;11.00;99.90
33699;DHT22;20032;52.436;13.312;2022-09-24T01:03:55;11.00;99.90
33699;DHT22;20032;52.436;13.312;2022-09-24T01:06:22;11.00;99.90
33699;DHT22;20032;52.436;13.312;2022-09-24T01:08:48;11.00;99.90
33699;DHT22;20032;52.436;13.312;2022-09-24T01:11:41;11.00;99.90
33699;DHT22;20032;52.436;13.312;2022-09-24T01:14:36;11.00;99.90
33699;DHT22;20032;52.436;13.312;2022-09-24T01:17:17;11.00;99.90
33699;DHT22;20032;52.436;13.312;2022-09-24T01:23:08;11.10;99.90
33699;DHT22;20032;52.436;13.312;2022-09-24T01:25:57;11.10;99.90
33699;DHT22;20032;52.436;13.312;2022-09-24T01:28:40;11.10;99.90
33699;DHT22;20032;52.436;13.312;2022-09-24T01:31:17;11.10;99.90
33699;DHT22;20032;52.436;13.312;2022-09-24T01:33:45;11.10;99.90
33699;DHT22;20032;52.436;13.312;2022-09-24T01:36:14;11.10;99.90
33699;DHT22;20032;52.436;13.312;2022-09-24T01:38:43;11.00;99.90
33699;DHT22;20032;52.436;13.312;2022-09-24T01:41:11;11.00;99.90
33699;DHT22;20032;52.436;13.312;2022-09-24T01:43:40;11.00;99.90
33699;DHT22;20032;52.436;13.312;2022-09-24T01:46:07;11.00;99.90
33699;DHT22;20032;52.436;13.312;2022-09-24T01:48:36;11.00;99.90
33699;DHT22;20032;52.436;13.312;2022-09-24T01:51:08;11.10;99.90
33699;DHT22;20032;52.436;13.312;2022-09-24T01:53:59;11.10;99.90
33699;DHT22;20032;52.436;13.312;2022-09-24T01:56:30;11.20;99.90
33699;DHT22;20032;52.436;13.312;2022-09-24T01:59:01;11.20;99.90
33699;DHT22;20032;52.436;13.312;2022-09-24T02:01:32;11.10;99.90
33699;DHT22;20032;52.436;13.312;2022-09-24T02:04:00;11.10;99.90
33699;DHT22;20032;52.436;13.312;2022-09-24T02:06:35;11.10;99.90
33699;DHT22;20032;52.436;13.312;2022-09-24T02:09:02;11.10;99.90
33699;DHT22;20032;52.436;13.312;2022-09-24T02:11:31;11.10;99.90
33699;DHT22;20032;52.436;13.312;2022-09-24T02:14:02;11.00;99.90
33699;DHT22;20032;52.436;13.312;2022-09-24T02:16:35;11.00;99.90
33699;DHT22;20032;52.436;13.312;2022-09-24T02:19:05;11.00;99.90
33699;DHT22;20032;52.436;13.312;2022-09-24T02:21:31;11.00;99.90
33699;DHT22;20032;52.436;13.312;2022-09-24T02:24:03;11.00;99.90
33699;DHT22;20032;52.436;13.312;2022-09-24T02:26:30;11.00;99.90
33699;DHT22;20032;52.436;13.312;2022-09-24T02:28:55;11.00;99.90
33699;DHT22;20032;52.436;13.312;2022-09-24T02:31:26;11.00;99.90
33699;DHT22;20032;52.436;13.312;2022-09-24T02:33:53;11.10;99.90
33699;DHT22;20032;52.436;13.312;2022-09-24T02:36:39;11.10;99.90
33699;DHT22;20032;52.436;13.312;2022-09-24T02:39:05;11.10;99.90
33699;DHT22;20032;52.436;13.312;2022-09-24T02:41:31;11.10;99.90
33699;DHT22;20032;52.436;13.312;2022-09-24T02:43:57;11.20;99.90
33699;DHT22;20032;52.436;13.312;2022-09-24T02:46:23;11.20;99.90
33699;DHT22;20032;52.436;13.312;2022-09-24T02:48:49;11.30;99.90
33699;DHT22;20032;52.436;13.312;2022-09-24T02:51:14;11.30;99.90
33699;DHT22;20032;52.436;13.312;2022-09-24T02:53:40;11.30;99.90
33699;DHT22;20032;52.436;13.312;2022-09-24T02:56:06;11.40;99.90
33699;DHT22;20032;52.436;13.312;2022-09-24T02:58:33;11.40;99.90
33699;DHT22;20032;52.436;13.312;2022-09-24T03:00:58;11.30;99.90
33699;DHT22;20032;52.436;13.312;2022-09-24T03:03:24;11.30;99.90
33699;DHT22;20032;52.436;13.312;2022-09-24T03:05:50;11.30;99.90
33699;DHT22;20032;52.436;13.312;2022-09-24T03:08:17;11.40;99.90
33699;DHT22;20032;52.436;13.312;2022-09-24T03:10:43;11.30;99.90
33699;DHT22;20032;52.436;13.312;2022-09-24T03:13:09;11.30;99.90
33699;DHT22;20032;52.436;13.312;2022-09-24T03:15:35;11.20;99.90
33699;DHT22;20032;52.436;13.312;2022-09-24T03:18:00;11.20;99.90
33699;DHT22;20032;52.436;13.312;2022-09-24T03:20:26;11.20;99.90
33699;DHT22;20032;52.436;13.312;2022-09-24T03:22:51;11.10;99.90
33699;DHT22;20032;52.436;13.312;2022-09-24T03:25:19;11.00;99.90
33699;DHT22;20032;52.436;13.312;2022-09-24T03:27:45;11.00;99.90
33699;DHT22;20032;52.436;13.312;2022-09-24T03:30:11;11.00;99.90
33699;DHT22;20032;52.436;13.312;2022-09-24T03:32:57;11.00;99.90
33699;DHT22;20032;52.436;13.312;2022-09-24T03:35:23;11.10;99.90
33699;DHT22;20032;52.436;13.312;2022-09-24T03:37:50;11.20;99.90
33699;DHT22;20032;52.436;13.312;2022-09-24T03:40:16;11.20;99.90
33699;DHT22;20032;52.436;13.312;2022-09-24T03:42:41;11.20;99.90
33699;DHT22;20032;52.436;13.312;2022-09-24T03:45:07;11.10;99.90
33699;DHT22;20032;52.436;13.312;2022-09-24T03:47:33;11.20;99.90
33699;DHT22;20032;52.436;13.312;2022-09-24T03:49:58;11.20;99.90
33699;DHT22;20032;52.436;13.312;2022-09-24T03:52:24;11.10;99.90
33699;DHT22;20032;52.436;13.312;2022-09-24T03:54:51;11.20;99.90
33699;DHT22;20032;52.436;13.312;2022-09-24T03:57:16;11.10;99.90
33699;DHT22;20032;52.436;13.312;2022-09-24T03:59:42;11.20;99.90
33699;DHT22;20032;52.436;13.312;2022-09-24T04:02:09;11.20;99.90
33699;DHT22;20032;52.436;13.312;2022-09-24T04:04:35;11.20;99.90
33699;DHT22;20032;52.436;13.312;2022-09-24T04:07:00;11.20;99.90
33699;DHT22;20032;52.436;13.312;2022-09-24T04:09:26;11.10;99.90
33699;DHT22;20032;52.436;13.312;2022-09-24T04:11:51;11.10;99.90
33699;DHT22;20032;52.436;13.312;2022-09-24T04:14:17;11.00;99.90
33699;DHT22;20032;52.436;13.312;2022-09-24T04:16:43;11.00;99.90
33699;DHT22;20032;52.436;13.312;2022-09-24T04:19:10;11.00;99.90
33699;DHT22;20032;52.436;13.312;2022-09-24T04:21:36;11.00;99.90
33699;DHT22;20032;52.436;13.312;2022-09-24T04:24:02;11.00;99.90
33699;DHT22;20032;52.436;13.312;2022-09-24T04:26:28;11.20;99.90
33699;DHT22;20032;52.436;13.312;2022-09-24T04:28:53;11.20;99.90
33699;DHT22;20032;52.436;13.312;2022-09-24T04:31:18;11.20;99.90
33699;DHT22;20032;52.436;13.312;2022-09-24T04:33:44;11.00;99.90
33699;DHT22;20032;52.436;13.312;2022-09-24T04:36:10;11.00;99.90
33699;DHT22;20032;52.436;13.312;2022-09-24T04:38:35;11.00;99.90
33699;DHT22;20032;52.436;13.312;2022-09-24T04:41:05;11.10;99.90
33699;DHT22;20032;52.436;13.312;2022-09-24T04:43:32;11.10;99.90
33699;DHT22;20032;52.436;13.312;2022-09-24T04:45:58;11.10;99.90
33699;DHT22;20032;52.436;13.312;2022-09-24T04:48:25;11.10;99.90
33699;DHT22;20032;52.436;13.312;2022-09-24T04:50:50;11.10;99.90
33699;DHT22;20032;52.436;13.312;2022-09-24T04:53:16;11.20;99.90
33699;DHT22;20032;52.436;13.312;2022-09-24T04:55:41;11.20;99.90
33699;DHT22;20032;52.436;13.312;2022-09-24T04:58:07;11.20;99.90
33699;DHT22;20032;52.436;13.312;2022-09-24T05:00:33;11.20;99.90
33699;DHT22;20032;52.436;13.312;2022-09-24T05:03:00;11.10;99.90
33699;DHT22;20032;52.436;13.312;2022-09-24T05:05:28;11.00;99.90
33699;DHT22;20032;52.436;13.312;2022-09-24T05:07:54;11.00;99.90
33699;DHT22;20032;52.436;13.312;2022-09-24T05:10:22;11.10;99.90
33699;DHT22;20032;52.436;13.312;2022-09-24T05:12:48;11.10;99.90
33699;DHT22;20032;52.436;13.312;2022-09-24T05:15:13;11.20;99.90
33699;DHT22;20032;52.436;13.312;2022-09-24T05:17:39;11.20;99.90
33699;DHT22;20032;52.436;13.312;2022-09-24T05:20:06;11.20;99.90
33699;DHT22;20032;52.436;13.312;2022-09-24T05:22:32;11.20;99.90
33699;DHT22;20032;52.436;13.312;2022-09-24T05:24:58;11.30;99.90
33699;DHT22;20032;52.436;13.312;2022-09-24T05:27:23;11.30;99.90
33699;DHT22;20032;52.436;13.312;2022-09-24T05:29:49;11.20;99.90
33699;DHT22;20032;52.436;13.312;2022-09-24T05:32:16;11.20;99.90
33699;DHT22;20032;52.436;13.312;2022-09-24T05:34:43;11.10;99.90
33699;DHT22;20032;52.436;13.312;2022-09-24T05:37:09;11.20;99.90
33699;DHT22;20032;52.436;13.312;2022-09-24T05:39:35;11.10;99.90
33699;DHT22;20032;52.436;13.312;2022-09-24T05:42:01;11.20;99.90
33699;DHT22;20032;52.436;13.312;2022-09-24T05:44:28;11.30;99.90
33699;DHT22;20032;52.436;13.312;2022-09-24T05:46:54;11.30;99.90
33699;DHT22;20032;52.436;13.312;2022-09-24T05:49:19;11.30;99.90
33699;DHT22;20032;52.436;13.312;2022-09-24T05:51:47;11.30;99.90
33699;DHT22;20032;52.436;13.312;2022-09-24T05:54:13;11.40;99.90
33699;DHT22;20032;52.436;13.312;2022-09-24T05:56:38;11.40;99.90
33699;DHT22;20032;52.436;13.312;2022-09-24T05:59:04;11.40;99.90
33699;DHT22;20032;52.436;13.312;2022-09-24T06:01:29;11.40;99.90
33699;DHT22;20032;52.436;13.312;2022-09-24T06:03:56;11.40;99.90
33699;DHT22;20032;52.436;13.312;2022-09-24T06:06:22;11.40;99.90
33699;DHT22;20032;52.436;13.312;2022-09-24T06:08:48;11.40;99.90
33699;DHT22;20032;52.436;13.312;2022-09-24T06:11:13;11.40;99.90
33699;DHT22;20032;52.436;13.312;2022-09-24T06:13:39;11.40;99.90
33699;DHT22;20032;52.436;13.312;2022-09-24T06:16:07;11.40;99.90
33699;DHT22;20032;52.436;13.312;2022-09-24T06:18:34;11.40;99.90
33699;DHT22;20032;52.436;13.312;2022-09-24T06:21:01;11.50;99.90
33699;DHT22;20032;52.436;13.312;2022-09-24T06:23:28;11.50;99.90
33699;DHT22;20032;52.436;13.312;2022-09-24T06:25:55;11.60;99.90
33699;DHT22;20032;52.436;13.312;2022-09-24T06:28:21;11.60;99.90
33699;DHT22;20032;52.436;13.312;2022-09-24T06:30:47;11.60;99.90
33699;DHT22;20032;52.436;13.312;2022-09-24T06:33:13;11.60;99.90
33699;DHT22;20032;52.436;13.312;2022-09-24T06:35:40;11.70;99.90
33699;DHT22;20032;52.436;13.312;2022-09-24T06:38:09;11.70;99.90
33699;DHT22;20032;52.436;13.312;2022-09-24T06:40:34;11.70;99.90
33699;DHT22;20032;52.436;13.312;2022-09-24T06:43:00;11.70;99.90
33699;DHT22;20032;52.436;13.312;2022-09-24T06:45:26;11.70;99.90
33699;DHT22;20032;52.436;13.312;2022-09-24T06:47:57;11.70;99.90
33699;DHT22;20032;52.436;13.312;2022-09-24T06:50:25;11.70;99.90
33699;DHT22;20032;52.436;13.312;2022-09-24T06:52:50;11.70;99.90
33699;DHT22;20032;52.436;13.312;2022-09-24T06:55:17;11.90;99.90
33699;DHT22;20032;52.436;13.312;2022-09-24T06:57:42;11.90;99.90
33699;DHT22;20032;52.436;13.312;2022-09-24T07:00:09;11.90;99.90
33699;DHT22;20032;52.436;13.312;2022-09-24T07:02:35;11.90;99.90
33699;DHT22;20032;52.436;13.312;2022-09-24T07:05:01;12.00;99.90
33699;DHT22;20032;52.436;13.312;2022-09-24T07:07:26;12.00;99.90
33699;DHT22;20032;52.436;13.312;2022-09-24T07:09:57;12.10;99.90
33699;DHT22;20032;52.436;13.312;2022-09-24T07:12:23;12.10;99.90
33699;DHT22;20032;52.436;13.312;2022-09-24T07:14:48;12.20;99.90
33699;DHT22;20032;52.436;13.312;2022-09-24T07:17:14;12.10;99.90
33699;DHT22;20032;52.436;13.312;2022-09-24T07:19:40;12.10;99.90
33699;DHT22;20032;52.436;13.312;2022-09-24T07:22:06;12.10;99.90
33699;DHT22;20032;52.436;13.312;2022-09-24T07:24:32;12.00;99.90
33699;DHT22;20032;52.436;13.312;2022-09-24T07:26:57;12.10;99.90
33699;DHT22;20032;52.436;13.312;2022-09-24T07:29:23;12.10;99.90
33699;DHT22;20032;52.436;13.312;2022-09-24T07:31:49;12.20;99.90
33699;DHT22;20032;52.436;13.312;2022-09-24T07:34:14;12.20;99.90
33699;DHT22;20032;52.436;13.312;2022-09-24T07:36:40;12.20;99.90
33699;DHT22;20032;52.436;13.312;2022-09-24T07:39:06;12.20;99.90
33699;DHT22;20032;52.436;13.312;2022-09-24T07:41:31;12.20;99.90
33699;DHT22;20032;52.436;13.312;2022-09-24T07:43:58;12.20;99.90
33699;DHT22;20032;52.436;13.312;2022-09-24T07:46:24;12.20;99.90
33699;DHT22;20032;52.436;13.312;2022-09-24T07:48:52;12.20;99.90
33699;DHT22;20032;52.436;13.312;2022-09-24T07:51:21;12.30;99.90
33699;DHT22;20032;52.436;13.312;2022-09-24T07:53:46;12.40;99.90
33699;DHT22;20032;52.436;13.312;2022-09-24T07:56:13;12.50;99.90
33699;DHT22;20032;52.436;13.312;2022-09-24T07:58:38;12.50;99.90
33699;DHT22;20032;52.436;13.312;2022-09-24T08:01:04;12.50;99.90
33699;DHT22;20032;52.436;13.312;2022-09-24T08:03:29;12.60;99.90
33699;DHT22;20032;52.436;13.312;2022-09-24T08:05:55;12.60;99.90
33699;DHT22;20032;52.436;13.312;2022-09-24T08:08:23;12.70;99.90
33699;DHT22;20032;52.436;13.312;2022-09-24T08:10:49;12.70;99.90
33699;DHT22;20032;52.436;13.312;2022-09-24T08:13:14;12.80;99.90
33699;DHT22;20032;52.436;13.312;2022-09-24T08:15:40;12.90;99.90
33699;DHT22;20032;52.436;13.312;2022-09-24T08:18:06;12.90;99.90
33699;DHT22;20032;52.436;13.312;2022-09-24T08:20:32;13.00;99.90
33699;DHT22;20032;52.436;13.312;2022-09-24T08:23:00;13.10;99.90
33699;DHT22;20032;52.436;13.312;2022-09-24T08:25:26;13.10;99.90
33699;DHT22;20032;52.436;13.312;2022-09-24T08:27:52;13.10;99.90
33699;DHT22;20032;52.436;13.312;2022-09-24T08:30:17;13.10;99.90
33699;DHT22;20032;52.436;13.312;2022-09-24T08:32:46;13.20;99.90
33699;DHT22;20032;52.436;13.312;2022-09-24T08:35:12;13.30;99.90
33699;DHT22;20032;52.436;13.312;2022-09-24T08:37:40;13.30;99.90
33699;DHT22;20032;52.436;13.312;2022-09-24T08:40:06;13.40;99.90
33699;DHT22;20032;52.436;13.312;2022-09-24T08:42:47;13.60;99.90
33699;DHT22;20032;52.436;13.312;2022-09-24T08:45:16;13.70;99.90
33699;DHT22;20032;52.436;13.312;2022-09-24T08:48:11;13.80;99.90
33699;DHT22;20032;52.436;13.312;2022-09-24T08:50:47;13.90;99.90
33699;DHT22;20032;52.436;13.312;2022-09-24T08:53:43;13.90;99.90
33699;DHT22;20032;52.436;13.312;2022-09-24T08:56:10;14.00;99.90
33699;DHT22;20032;52.436;13.312;2022-09-24T08:58:59;14.00;99.90
33699;DHT22;20032;52.436;13.312;2022-09-24T09:01:40;14.00;99.90
33699;DHT22;20032;52.436;13.312;2022-09-24T09:04:27;14.10;99.90
33699;DHT22;20032;52.436;13.312;2022-09-24T09:08:01;14.00;99.90
33699;DHT22;20032;52.436;13.312;2022-09-24T09:09:52;14.10;99.90
33699;DHT22;20032;52.436;13.312;2022-09-24T09:12:37;14.10;99.90
33699;DHT22;20032;52.436;13.312;2022-09-24T09:15:09;14.20;99.90
33699;DHT22;20032;52.436;13.312;2022-09-24T09:17:59;14.30;99.90
33699;DHT22;20032;52.436;13.312;2022-09-24T09:20:32;14.30;99.90
33699;DHT22;20032;52.436;13.312;2022-09-24T09:23:14;14.20;99.90
33699;DHT22;20032;52.436;13.312;2022-09-24T09:25:46;14.30;99.90
33699;DHT22;20032;52.436;13.312;2022-09-24T09:28:16;14.30;99.90
33699;DHT22;20032;52.436;13.312;2022-09-24T09:31:05;14.40;99.90
33699;DHT22;20032;52.436;13.312;2022-09-24T09:36:45;14.50;99.90
33699;DHT22;20032;52.436;13.312;2022-09-24T09:40:40;14.60;99.90
33699;DHT22;20032;52.436;13.312;2022-09-24T09:42:27;14.70;99.90
33699;DHT22;20032;52.436;13.312;2022-09-24T09:44:54;14.70;99.90
33699;DHT22;20032;52.436;13.312;2022-09-24T09:47:40;14.70;99.90
33699;DHT22;20032;52.436;13.312;2022-09-24T09:50:26;14.70;99.90
33699;DHT22;20032;52.436;13.312;2022-09-24T09:52:53;14.70;99.90
33699;DHT22;20032;52.436;13.312;2022-09-24T09:55:35;14.80;99.90
33699;DHT22;20032;52.436;13.312;2022-09-24T09:58:17;15.00;99.90
33699;DHT22;20032;52.436;13.312;2022-09-24T10:00:44;15.00;99.90
33699;DHT22;20032;52.436;13.312;2022-09-24T10:03:44;15.20;99.90
33699;DHT22;20032;52.436;13.312;2022-09-24T10:06:12;15.10;99.90
33699;DHT22;20032;52.436;13.312;2022-09-24T10:08:38;15.00;99.90
33699;DHT22;20032;52.436;13.312;2022-09-24T10:11:05;15.00;99.90
33699;DHT22;20032;52.436;13.312;2022-09-24T10:13:32;15.00;99.90
33699;DHT22;20032;52.436;13.312;2022-09-24T10:16:01;15.00;99.90
33699;DHT22;20032;52.436;13.312;2022-09-24T10:18:33;15.10;99.90
33699;DHT22;20032;52.436;13.312;2022-09-24T10:21:00;15.00;99.90
33699;DHT22;20032;52.436;13.312;2022-09-24T10:23:35;15.00;99.90
33699;DHT22;20032;52.436;13.312;2022-09-24T10:26:02;15.00;99.90
33699;DHT22;20032;52.436;13.312;2022-09-24T10:28:29;15.00;99.90
33699;DHT22;20032;52.436;13.312;2022-09-24T10:31:19;15.10;99.90
33699;DHT22;20032;52.436;13.312;2022-09-24T10:33:48;15.10;99.90
33699;DHT22;20032;52.436;13.312;2022-09-24T10:36:18;15.10;99.90
33699;DHT22;20032;52.436;13.312;2022-09-24T10:38:44;15.10;99.90
33699;DHT22;20032;52.436;13.312;2022-09-24T10:41:28;15.30;99.90
33699;DHT22;20032;52.436;13.312;2022-09-24T10:43:55;15.40;99.90
33699;DHT22;20032;52.436;13.312;2022-09-24T10:46:47;15.40;99.90
33699;DHT22;20032;52.436;13.312;2022-09-24T10:53:13;15.50;99.90
33699;DHT22;20032;52.436;13.312;2022-09-24T10:58:03;15.60;99.90
33699;DHT22;20032;52.436;13.312;2022-09-24T11:00:38;15.60;99.90
33699;DHT22;20032;52.436;13.312;2022-09-24T11:04:19;15.70;99.90
33699;DHT22;20032;52.436;13.312;2022-09-24T11:06:33;15.80;99.90
33699;DHT22;20032;52.436;13.312;2022-09-24T11:11:55;15.90;99.90
33699;DHT22;20032;52.436;13.312;2022-09-24T11:14:43;15.90;99.90
33699;DHT22;20032;52.436;13.312;2022-09-24T11:17:45;16.00;99.90
33699;DHT22;20032;52.436;13.312;2022-09-24T11:20:19;16.00;99.90
33699;DHT22;20032;52.436;13.312;2022-09-24T11:25:38;16.30;99.90
33699;DHT22;20032;52.436;13.312;2022-09-24T11:28:21;16.50;99.90
33699;DHT22;20032;52.436;13.312;2022-09-24T11:34:01;16.50;99.90
33699;DHT22;20032;52.436;13.312;2022-09-24T11:36:42;16.50;99.90
33699;DHT22;20032;52.436;13.312;2022-09-24T11:39:35;16.40;99.90
33699;DHT22;20032;52.436;13.312;2022-09-24T11:42:26;16.40;99.90
33699;DHT22;20032;52.436;13.312;2022-09-24T11:45:12;16.50;99.90
33699;DHT22;20032;52.436;13.312;2022-09-24T11:48:14;16.50;99.90
33699;DHT22;20032;52.436;13.312;2022-09-24T11:51:59;16.50;99.90
33699;DHT22;20032;52.436;13.312;2022-09-24T11:53:36;16.50;99.90
33699;DHT22;20032;52.436;13.312;2022-09-24T11:56:12;16.60;99.90
33699;DHT22;20032;52.436;13.312;2022-09-24T11:58:45;16.70;99.90
33699;DHT22;20032;52.436;13.312;2022-09-24T12:01:23;16.70;99.90
33699;DHT22;20032;52.436;13.312;2022-09-24T12:04:10;16.70;99.90
33699;DHT22;20032;52.436;13.312;2022-09-24T12:06:52;16.60;99.90
33699;DHT22;20032;52.436;13.312;2022-09-24T12:11:57;16.40;99.90
33699;DHT22;20032;52.436;13.312;2022-09-24T12:14:33;16.40;99.90
33699;DHT22;20032;52.436;13.312;2022-09-24T12:17:06;16.40;99.90
33699;DHT22;20032;52.436;13.312;2022-09-24T12:19:40;16.50;99.90
33699;DHT22;20032;52.436;13.312;2022-09-24T12:22:09;16.50;99.90
33699;DHT22;20032;52.436;13.312;2022-09-24T12:24:39;16.50;99.90
33699;DHT22;20032;52.436;13.312;2022-09-24T12:27:11;16.60;99.90
33699;DHT22;20032;52.436;13.312;2022-09-24T12:30:14;16.70;99.90
33699;DHT22;20032;52.436;13.312;2022-09-24T12:33:04;16.70;99.90
33699;DHT22;20032;52.436;13.312;2022-09-24T12:35:46;16.80;99.90
33699;DHT22;20032;52.436;13.312;2022-09-24T12:38:25;16.90;99.90
33699;DHT22;20032;52.436;13.312;2022-09-24T12:43:31;16.90;99.90
33699;DHT22;20032;52.436;13.312;2022-09-24T12:46:02;16.90;99.90
33699;DHT22;20032;52.436;13.312;2022-09-24T12:48:30;16.90;99.90
33699;DHT22;20032;52.436;13.312;2022-09-24T12:50:58;17.00;99.90
33699;DHT22;20032;52.436;13.312;2022-09-24T12:53:30;16.90;99.90
33699;DHT22;20032;52.436;13.312;2022-09-24T12:55:59;16.90;99.90
33699;DHT22;20032;52.436;13.312;2022-09-24T12:58:29;16.90;99.90
33699;DHT22;20032;52.436;13.312;2022-09-24T13:01:12;17.00;99.90
33699;DHT22;20032;52.436;13.312;2022-09-24T13:03:39;17.10;99.90
33699;DHT22;20032;52.436;13.312;2022-09-24T13:06:30;17.10;99.90
33699;DHT22;20032;52.436;13.312;2022-09-24T13:08:57;17.20;99.90
33699;DHT22;20032;52.436;13.312;2022-09-24T13:11:32;17.20;99.90
33699;DHT22;20032;52.436;13.312;2022-09-24T13:14:20;17.30;99.90
33699;DHT22;20032;52.436;13.312;2022-09-24T13:16:49;17.40;99.90
33699;DHT22;20032;52.436;13.312;2022-09-24T13:19:36;17.40;99.90
33699;DHT22;20032;52.436;13.312;2022-09-24T13:22:04;17.30;99.90
33699;DHT22;20032;52.436;13.312;2022-09-24T13:24:32;17.30;99.90
33699;DHT22;20032;52.436;13.312;2022-09-24T13:27:20;17.30;99.90
33699;DHT22;20032;52.436;13.312;2022-09-24T13:29:47;17.40;99.90
33699;DHT22;20032;52.436;13.312;2022-09-24T13:32:18;17.30;99.90
33699;DHT22;20032;52.436;13.312;2022-09-24T13:34:46;17.40;99.90
33699;DHT22;20032;52.436;13.312;2022-09-24T13:37:33;17.30;99.90
33699;DHT22;20032;52.436;13.312;2022-09-24T13:40:06;17.40;99.90
33699;DHT22;20032;52.436;13.312;2022-09-24T13:42:51;17.40;99.90
33699;DHT22;20032;52.436;13.312;2022-09-24T13:45:21;17.50;99.90
33699;DHT22;20032;52.436;13.312;2022-09-24T13:47:52;17.60;99.90
33699;DHT22;20032;52.436;13.312;2022-09-24T13:50:26;17.60;99.90
33699;DHT22;20032;52.436;13.312;2022-09-24T13:52:58;17.60;99.90
33699;DHT22;20032;52.436;13.312;2022-09-24T13:55:33;17.70;99.90
33699;DHT22;20032;52.436;13.312;2022-09-24T13:58:01;17.60;99.90
33699;DHT22;20032;52.436;13.312;2022-09-24T14:00:28;17.60;99.90
33699;DHT22;20032;52.436;13.312;2022-09-24T14:05:27;17.60;99.90
33699;DHT22;20032;52.436;13.312;2022-09-24T14:07:57;17.50;99.90
33699;DHT22;20032;52.436;13.312;2022-09-24T14:10:25;17.50;99.90
33699;DHT22;20032;52.436;13.312;2022-09-24T14:13:15;17.60;99.90
33699;DHT22;20032;52.436;13.312;2022-09-24T14:18:17;17.60;99.90
33699;DHT22;20032;52.436;13.312;2022-09-24T14:20:43;17.60;99.90
33699;DHT22;20032;52.436;13.312;2022-09-24T14:23:16;17.60;99.90
33699;DHT22;20032;52.436;13.312;2022-09-24T14:25:45;17.50;99.90
33699;DHT22;20032;52.436;13.312;2022-09-24T14:28:12;17.40;99.90
33699;DHT22;20032;52.436;13.312;2022-09-24T14:30:48;17.40;99.90
33699;DHT22;20032;52.436;13.312;2022-09-24T14:33:16;17.30;99.90
33699;DHT22;20032;52.436;13.312;2022-09-24T14:35:46;17.30;99.90
33699;DHT22;20032;52.436;13.312;2022-09-24T14:38:16;17.20;99.90
33699;DHT22;20032;52.436;13.312;2022-09-24T14:40:43;17.20;99.90
33699;DHT22;20032;52.436;13.312;2022-09-24T14:43:20;17.20;99.90
33699;DHT22;20032;52.436;13.312;2022-09-24T14:45:48;17.20;99.90
33699;DHT22;20032;52.436;13.312;2022-09-24T14:48:23;17.10;99.90
33699;DHT22;20032;52.436;13.312;2022-09-24T14:50:49;17.10;99.90
33699;DHT22;20032;52.436;13.312;2022-09-24T14:53:32;17.10;99.90
33699;DHT22;20032;52.436;13.312;2022-09-24T14:55:59;17.10;99.90
33699;DHT22;20032;52.436;13.312;2022-09-24T15:01:00;16.90;99.90
33699;DHT22;20032;52.436;13.312;2022-09-24T15:03:39;16.90;99.90
33699;DHT22;20032;52.436;13.312;2022-09-24T15:06:15;16.90;99.90
33699;DHT22;20032;52.436;13.312;2022-09-24T15:08:42;16.80;99.90
33699;DHT22;20032;52.436;13.312;2022-09-24T15:11:14;16.80;99.90
33699;DHT22;20032;52.436;13.312;2022-09-24T15:13:41;16.80;99.90
33699;DHT22;20032;52.436;13.312;2022-09-24T15:16:31;16.80;99.90
33699;DHT22;20032;52.436;13.312;2022-09-24T15:21:33;16.70;99.90
33699;DHT22;20032;52.436;13.312;2022-09-24T15:23:58;16.70;99.90
33699;DHT22;20032;52.436;13.312;2022-09-24T15:26:28;16.70;99.90
33699;DHT22;20032;52.436;13.312;2022-09-24T15:28:56;16.70;99.90
33699;DHT22;20032;52.436;13.312;2022-09-24T15:31:22;16.80;99.90
33699;DHT22;20032;52.436;13.312;2022-09-24T15:33:48;16.70;99.90
33699;DHT22;20032;52.436;13.312;2022-09-24T15:36:13;16.70;99.90
33699;DHT22;20032;52.436;13.312;2022-09-24T15:38:43;16.60;99.90
33699;DHT22;20032;52.436;13.312;2022-09-24T15:41:09;16.60;99.90
33699;DHT22;20032;52.436;13.312;2022-09-24T15:43:34;16.60;99.90
33699;DHT22;20032;52.436;13.312;2022-09-24T15:46:00;16.50;99.90
33699;DHT22;20032;52.436;13.312;2022-09-24T15:48:25;16.50;99.90
33699;DHT22;20032;52.436;13.312;2022-09-24T15:50:51;16.50;99.90
33699;DHT22;20032;52.436;13.312;2022-09-24T15:53:20;16.50;99.90
33699;DHT22;20032;52.436;13.312;2022-09-24T15:55:48;16.40;99.90
33699;DHT22;20032;52.436;13.312;2022-09-24T15:58:15;16.40;99.90
33699;DHT22;20032;52.436;13.312;2022-09-24T16:00:41;16.40;99.90
33699;DHT22;20032;52.436;13.312;2022-09-24T16:03:17;16.40;99.90
33699;DHT22;20032;52.436;13.312;2022-09-24T16:05:43;16.40;99.90
33699;DHT22;20032;52.436;13.312;2022-09-24T16:08:09;16.30;99.90
33699;DHT22;20032;52.436;13.312;2022-09-24T16:10:34;16.40;99.90
33699;DHT22;20032;52.436;13.312;2022-09-24T16:13:00;16.40;99.90
33699;DHT22;20032;52.436;13.312;2022-09-24T16:15:25;16.30;99.90